sensor_id;sensor_type;location;lat;lon;timestamp;pressure;altitude;pressure_sealevel;temperature;humidity
50268;BME280;36153;50.960;6.220;2022-10-16T00:00:28;100132.84;;;18.60;60.59
50268;BME280;36153;50.960;6.220;2022-10-16T00:03:29;100148.00;;;18.52;60.78
50268;BME280;36153;50.960;6.220;2022-10-16T00:06:30;100147.75;;;18.62;60.51
50268;BME280;36153;50.960;6.220;2022-10-16T00:09:31;100132.03;;;18.58;60.82
50268;BME280;36153;50.960;6.220;2022-10-16T00:12:31;100126.50;;;18.68;60.54
50268;BME280;36153;50.960;6.220;2022-10-16T00:15:36;100130.59;;;18.78;59.96
50268;BME280;36153;50.960;6.220;2022-10-16T00:18:37;100119.41;;;18.70;59.78
50268;BME280;36153;50.960;6.220;2022-10-16T00:21:37;100119.94;;;18.51;60.28
50268;BME280;36153;50.960;6.220;2022-10-16T00:24:38;100111.19;;;18.49;60.39
50268;BME280;36153;50.960;6.220;2022-10-16T00:27:39;100116.72;;;18.40;60.38
50268;BME280;36153;50.960;6.220;2022-10-16T00:30:39;100126.34;;;18.41;60.25
50268;BME280;36153;50.960;6.220;2022-10-16T00:33:40;100123.88;;;18.35;60.58
50268;BME280;36153;50.960;6.220;2022-10-16T00:36:41;100118.22;;;18.16;61.06
50268;BME280;36153;50.960;6.220;2022-10-16T00:39:41;100108.94;;;18.01;61.33
50268;BME280;36153;50.960;6.220;2022-10-16T00:42:41;100114.38;;;17.95;61.51
50268;BME280;36153;50.960;6.220;2022-10-16T00:45:45;100114.50;;;17.88;61.54
50268;BME280;36153;50.960;6.220;2022-10-16T00:49:10;100114.84;;;17.74;62.10
50268;BME280;36153;50.960;6.220;2022-10-16T00:52:12;100118.34;;;17.75;62.34
50268;BME280;36153;50.960;6.220;2022-10-16T00:55:13;100123.53;;;17.78;62.27
50268;BME280;36153;50.960;6.220;2022-10-16T00:58:14;100124.66;;;17.68;62.53
50268;BME280;36153;50.960;6.220;2022-10-16T01:01:14;100120.38;;;17.64;62.56
50268;BME280;36153;50.960;6.220;2022-10-16T01:04:15;100121.13;;;17.67;62.56
50268;BME280;36153;50.960;6.220;2022-10-16T01:10:35;100134.22;;;17.72;62.23
50268;BME280;36153;50.960;6.220;2022-10-16T01:13:46;100130.72;;;17.70;62.23
50268;BME280;36153;50.960;6.220;2022-10-16T01:16:53;100129.81;;;17.72;61.89
50268;BME280;36153;50.960;6.220;2022-10-16T01:20:06;100121.19;;;17.66;61.74
50268;BME280;36153;50.960;6.220;2022-10-16T01:26:36;100132.06;;;17.50;62.16
50268;BME280;36153;50.960;6.220;2022-10-16T01:33:06;100135.81;;;17.40;62.18
50268;BME280;36153;50.960;6.220;2022-10-16T01:36:14;100141.88;;;17.44;62.50
50268;BME280;36153;50.960;6.220;2022-10-16T01:39:20;100152.03;;;17.61;61.95
50268;BME280;36153;50.960;6.220;2022-10-16T01:42:24;100141.53;;;17.57;61.54
50268;BME280;36153;50.960;6.220;2022-10-16T01:45:29;100147.69;;;17.58;61.50
50268;BME280;36153;50.960;6.220;2022-10-16T01:48:32;100158.09;;;17.63;60.95
50268;BME280;36153;50.960;6.220;2022-10-16T01:51:34;100151.94;;;17.64;61.17
50268;BME280;36153;50.960;6.220;2022-10-16T01:54:37;100149.94;;;17.75;60.46
50268;BME280;36153;50.960;6.220;2022-10-16T01:57:41;100159.28;;;17.88;59.90
50268;BME280;36153;50.960;6.220;2022-10-16T02:00:45;100159.91;;;18.00;59.40
50268;BME280;36153;50.960;6.220;2022-10-16T02:03:46;100157.16;;;18.04;59.03
50268;BME280;36153;50.960;6.220;2022-10-16T02:06:52;100158.94;;;18.04;59.16
50268;BME280;36153;50.960;6.220;2022-10-16T02:09:52;100163.75;;;18.21;58.76
50268;BME280;36153;50.960;6.220;2022-10-16T02:12:59;100148.91;;;18.18;58.44
50268;BME280;36153;50.960;6.220;2022-10-16T02:16:00;100155.16;;;18.14;58.46
50268;BME280;36153;50.960;6.220;2022-10-16T02:19:01;100154.75;;;18.30;58.29
50268;BME280;36153;50.960;6.220;2022-10-16T02:22:03;100150.59;;;18.21;58.38
50268;BME280;36153;50.960;6.220;2022-10-16T02:25:10;100156.00;;;18.16;58.66
50268;BME280;36153;50.960;6.220;2022-10-16T02:28:19;100160.16;;;18.25;58.45
50268;BME280;36153;50.960;6.220;2022-10-16T02:31:26;100155.84;;;18.21;58.19
50268;BME280;36153;50.960;6.220;2022-10-16T02:34:29;100149.91;;;18.13;58.47
50268;BME280;36153;50.960;6.220;2022-10-16T02:37:32;100151.69;;;18.12;58.26
50268;BME280;36153;50.960;6.220;2022-10-16T02:40:33;100159.66;;;18.09;58.41
50268;BME280;36153;50.960;6.220;2022-10-16T02:43:33;100163.47;;;17.97;58.40
50268;BME280;36153;50.960;6.220;2022-10-16T02:46:34;100157.44;;;17.90;58.77
50268;BME280;36153;50.960;6.220;2022-10-16T02:49:35;100162.72;;;17.90;59.09
50268;BME280;36153;50.960;6.220;2022-10-16T02:52:35;100172.47;;;17.85;59.33
50268;BME280;36153;50.960;6.220;2022-10-16T02:55:35;100160.97;;;17.93;59.08
50268;BME280;36153;50.960;6.220;2022-10-16T02:58:36;100150.34;;;17.96;59.15
50268;BME280;36153;50.960;6.220;2022-10-16T03:01:36;100147.84;;;17.88;59.44
50268;BME280;36153;50.960;6.220;2022-10-16T03:04:37;100139.94;;;17.88;59.60
50268;BME280;36153;50.960;6.220;2022-10-16T03:07:37;100144.19;;;17.95;59.67
50268;BME280;36153;50.960;6.220;2022-10-16T03:10:37;100159.13;;;17.95;59.27
50268;BME280;36153;50.960;6.220;2022-10-16T03:13:38;100159.06;;;17.98;59.32
50268;BME280;36153;50.960;6.220;2022-10-16T03:16:38;100156.38;;;17.99;59.41
50268;BME280;36153;50.960;6.220;2022-10-16T03:19:39;100164.28;;;17.99;59.39
50268;BME280;36153;50.960;6.220;2022-10-16T03:22:39;100160.63;;;18.05;59.05
50268;BME280;36153;50.960;6.220;2022-10-16T03:25:39;100162.66;;;17.94;59.58
50268;BME280;36153;50.960;6.220;2022-10-16T03:28:40;100168.88;;;17.93;59.47
50268;BME280;36153;50.960;6.220;2022-10-16T03:31:40;100154.94;;;17.86;59.70
50268;BME280;36153;50.960;6.220;2022-10-16T03:34:40;100166.41;;;17.83;60.11
50268;BME280;36153;50.960;6.220;2022-10-16T03:37:41;100151.06;;;17.63;60.22
50268;BME280;36153;50.960;6.220;2022-10-16T03:40:41;100167.50;;;17.73;60.26
50268;BME280;36153;50.960;6.220;2022-10-16T03:43:41;100179.03;;;17.67;60.41
50268;BME280;36153;50.960;6.220;2022-10-16T03:46:42;100185.28;;;17.63;60.38
50268;BME280;36153;50.960;6.220;2022-10-16T03:49:42;100181.06;;;17.56;60.81
50268;BME280;36153;50.960;6.220;2022-10-16T03:52:42;100168.72;;;17.60;60.96
50268;BME280;36153;50.960;6.220;2022-10-16T03:55:43;100171.44;;;17.55;60.84
50268;BME280;36153;50.960;6.220;2022-10-16T03:58:44;100180.28;;;17.52;60.92
50268;BME280;36153;50.960;6.220;2022-10-16T04:01:44;100185.50;;;17.54;61.29
50268;BME280;36153;50.960;6.220;2022-10-16T04:04:44;100180.28;;;17.52;61.35
50268;BME280;36153;50.960;6.220;2022-10-16T04:07:45;100190.00;;;17.49;61.23
50268;BME280;36153;50.960;6.220;2022-10-16T04:10:45;100186.25;;;17.59;61.60
50268;BME280;36153;50.960;6.220;2022-10-16T04:13:45;100192.47;;;17.55;61.49
50268;BME280;36153;50.960;6.220;2022-10-16T04:16:46;100193.13;;;17.66;61.30
50268;BME280;36153;50.960;6.220;2022-10-16T04:19:46;100186.28;;;17.57;61.47
50268;BME280;36153;50.960;6.220;2022-10-16T04:22:46;100187.06;;;17.63;61.71
50268;BME280;36153;50.960;6.220;2022-10-16T04:25:47;100183.38;;;17.70;61.04
50268;BME280;36153;50.960;6.220;2022-10-16T04:28:47;100188.00;;;17.60;61.26
50268;BME280;36153;50.960;6.220;2022-10-16T04:31:47;100204.66;;;17.61;61.46
50268;BME280;36153;50.960;6.220;2022-10-16T04:34:48;100224.03;;;17.58;61.25
50268;BME280;36153;50.960;6.220;2022-10-16T04:37:48;100232.84;;;17.55;61.64
50268;BME280;36153;50.960;6.220;2022-10-16T04:40:48;100242.69;;;17.46;61.54
50268;BME280;36153;50.960;6.220;2022-10-16T04:43:49;100233.88;;;17.48;61.41
50268;BME280;36153;50.960;6.220;2022-10-16T04:46:52;100228.66;;;17.47;61.28
50268;BME280;36153;50.960;6.220;2022-10-16T04:49:52;100217.38;;;17.40;61.45
50268;BME280;36153;50.960;6.220;2022-10-16T04:52:53;100232.31;;;17.38;61.65
50268;BME280;36153;50.960;6.220;2022-10-16T04:55:53;100229.69;;;17.38;61.66
50268;BME280;36153;50.960;6.220;2022-10-16T04:58:53;100242.03;;;17.36;61.99
50268;BME280;36153;50.960;6.220;2022-10-16T05:01:54;100241.97;;;17.39;61.90
50268;BME280;36153;50.960;6.220;2022-10-16T05:04:54;100249.22;;;17.28;62.12
50268;BME280;36153;50.960;6.220;2022-10-16T05:07:54;100256.06;;;17.35;62.15
50268;BME280;36153;50.960;6.220;2022-10-16T05:10:55;100255.16;;;17.37;61.62
50268;BME280;36153;50.960;6.220;2022-10-16T05:13:55;100243.72;;;17.38;62.02
50268;BME280;36153;50.960;6.220;2022-10-16T05:16:55;100250.66;;;17.41;61.93
50268;BME280;36153;50.960;6.220;2022-10-16T05:19:56;100244.56;;;17.40;62.11
50268;BME280;36153;50.960;6.220;2022-10-16T05:22:56;100258.44;;;17.47;61.76
50268;BME280;36153;50.960;6.220;2022-10-16T05:25:57;100276.91;;;17.46;61.67
50268;BME280;36153;50.960;6.220;2022-10-16T05:28:58;100270.78;;;17.44;61.92
50268;BME280;36153;50.960;6.220;2022-10-16T05:31:58;100275.34;;;17.37;62.27
50268;BME280;36153;50.960;6.220;2022-10-16T05:34:59;100278.66;;;17.45;62.14
50268;BME280;36153;50.960;6.220;2022-10-16T05:38:00;100280.53;;;17.40;62.39
50268;BME280;36153;50.960;6.220;2022-10-16T05:41:00;100279.72;;;17.36;62.14
50268;BME280;36153;50.960;6.220;2022-10-16T05:44:04;100283.94;;;17.44;62.07
50268;BME280;36153;50.960;6.220;2022-10-16T05:47:04;100291.09;;;17.38;62.38
50268;BME280;36153;50.960;6.220;2022-10-16T05:50:05;100294.66;;;17.36;62.28
50268;BME280;36153;50.960;6.220;2022-10-16T05:53:05;100308.63;;;17.38;62.26
50268;BME280;36153;50.960;6.220;2022-10-16T05:56:06;100307.72;;;17.39;62.13
50268;BME280;36153;50.960;6.220;2022-10-16T05:59:07;100319.16;;;17.38;62.39
50268;BME280;36153;50.960;6.220;2022-10-16T06:02:12;100322.78;;;17.32;62.53
50268;BME280;36153;50.960;6.220;2022-10-16T06:05:12;100313.81;;;17.41;62.25
50268;BME280;36153;50.960;6.220;2022-10-16T06:08:13;100325.97;;;17.48;62.50
50268;BME280;36153;50.960;6.220;2022-10-16T06:11:22;100324.13;;;17.52;62.16
50268;BME280;36153;50.960;6.220;2022-10-16T06:14:22;100330.34;;;17.48;62.29
50268;BME280;36153;50.960;6.220;2022-10-16T06:17:23;100329.56;;;17.44;62.46
50268;BME280;36153;50.960;6.220;2022-10-16T06:20:23;100332.06;;;17.50;62.67
50268;BME280;36153;50.960;6.220;2022-10-16T06:23:24;100347.66;;;17.61;62.14
50268;BME280;36153;50.960;6.220;2022-10-16T06:26:27;100353.84;;;17.58;62.66
50268;BME280;36153;50.960;6.220;2022-10-16T06:29:28;100351.00;;;17.69;62.45
50268;BME280;36153;50.960;6.220;2022-10-16T06:32:28;100358.00;;;17.70;62.38
50268;BME280;36153;50.960;6.220;2022-10-16T06:35:28;100362.34;;;17.71;62.44
50268;BME280;36153;50.960;6.220;2022-10-16T06:38:29;100349.75;;;17.87;62.04
50268;BME280;36153;50.960;6.220;2022-10-16T06:41:30;100363.00;;;17.83;62.09
50268;BME280;36153;50.960;6.220;2022-10-16T06:44:30;100358.63;;;17.83;61.72
50268;BME280;36153;50.960;6.220;2022-10-16T06:47:30;100378.91;;;17.78;61.83
50268;BME280;36153;50.960;6.220;2022-10-16T06:50:31;100376.44;;;17.69;62.45
50268;BME280;36153;50.960;6.220;2022-10-16T06:53:36;100380.84;;;17.68;62.18
50268;BME280;36153;50.960;6.220;2022-10-16T06:56:36;100386.94;;;17.72;62.03
50268;BME280;36153;50.960;6.220;2022-10-16T06:59:37;100393.97;;;17.70;62.15
50268;BME280;36153;50.960;6.220;2022-10-16T07:02:38;100399.31;;;17.67;62.25
50268;BME280;36153;50.960;6.220;2022-10-16T07:05:39;100406.31;;;17.68;62.34
50268;BME280;36153;50.960;6.220;2022-10-16T07:08:41;100403.59;;;17.72;61.96
50268;BME280;36153;50.960;6.220;2022-10-16T07:11:42;100405.22;;;17.78;62.12
50268;BME280;36153;50.960;6.220;2022-10-16T07:14:42;100418.44;;;17.75;62.42
50268;BME280;36153;50.960;6.220;2022-10-16T07:17:43;100417.31;;;17.87;62.17
50268;BME280;36153;50.960;6.220;2022-10-16T07:20:43;100417.50;;;17.79;62.04
50268;BME280;36153;50.960;6.220;2022-10-16T07:23:43;100432.28;;;17.86;62.26
50268;BME280;36153;50.960;6.220;2022-10-16T07:26:45;100426.03;;;17.92;62.02
50268;BME280;36153;50.960;6.220;2022-10-16T07:29:46;100438.31;;;17.93;62.03
50268;BME280;36153;50.960;6.220;2022-10-16T07:32:46;100440.75;;;18.04;62.33
50268;BME280;36153;50.960;6.220;2022-10-16T07:35:51;100448.44;;;18.13;62.16
50268;BME280;36153;50.960;6.220;2022-10-16T07:38:52;100452.56;;;18.27;62.04
50268;BME280;36153;50.960;6.220;2022-10-16T07:41:52;100457.31;;;18.51;61.71
50268;BME280;36153;50.960;6.220;2022-10-16T07:44:52;100456.88;;;18.70;61.11
50268;BME280;36153;50.960;6.220;2022-10-16T07:47:53;100465.66;;;18.72;61.05
50268;BME280;36153;50.960;6.220;2022-10-16T07:51:00;100466.47;;;18.74;60.99
50268;BME280;36153;50.960;6.220;2022-10-16T07:54:00;100471.28;;;18.94;60.21
50268;BME280;36153;50.960;6.220;2022-10-16T07:57:01;100470.22;;;19.03;60.20
50268;BME280;36153;50.960;6.220;2022-10-16T08:00:02;100478.16;;;19.03;59.40
50268;BME280;36153;50.960;6.220;2022-10-16T08:03:03;100473.59;;;19.08;59.27
50268;BME280;36153;50.960;6.220;2022-10-16T08:06:04;100474.16;;;19.22;58.68
50268;BME280;36153;50.960;6.220;2022-10-16T08:09:05;100485.31;;;19.34;58.33
50268;BME280;36153;50.960;6.220;2022-10-16T08:12:07;100481.50;;;19.44;58.26
50268;BME280;36153;50.960;6.220;2022-10-16T08:15:08;100487.19;;;19.63;57.40
50268;BME280;36153;50.960;6.220;2022-10-16T08:18:09;100490.91;;;19.56;57.56
50268;BME280;36153;50.960;6.220;2022-10-16T08:21:16;100495.03;;;19.66;57.27
50268;BME280;36153;50.960;6.220;2022-10-16T08:24:17;100499.97;;;19.80;57.21
50268;BME280;36153;50.960;6.220;2022-10-16T08:27:17;100505.50;;;19.69;56.45
50268;BME280;36153;50.960;6.220;2022-10-16T08:30:19;100511.28;;;19.85;56.72
50268;BME280;36153;50.960;6.220;2022-10-16T08:33:20;100516.28;;;19.96;55.64
50268;BME280;36153;50.960;6.220;2022-10-16T08:36:20;100519.47;;;20.09;55.58
50268;BME280;36153;50.960;6.220;2022-10-16T08:39:21;100522.78;;;20.16;55.26
50268;BME280;36153;50.960;6.220;2022-10-16T08:46:00;100549.50;;;20.38;54.90
50268;BME280;36153;50.960;6.220;2022-10-16T08:49:03;100535.88;;;20.52;54.65
50268;BME280;36153;50.960;6.220;2022-10-16T08:52:04;100552.19;;;20.68;53.96
50268;BME280;36153;50.960;6.220;2022-10-16T08:55:05;100550.75;;;20.56;53.13
50268;BME280;36153;50.960;6.220;2022-10-16T08:58:13;100552.78;;;20.46;52.99
50268;BME280;36153;50.960;6.220;2022-10-16T09:01:17;100552.25;;;20.64;53.21
50268;BME280;36153;50.960;6.220;2022-10-16T09:08:07;100549.91;;;20.85;52.23
50268;BME280;36153;50.960;6.220;2022-10-16T09:11:42;100546.72;;;21.02;51.30
50268;BME280;36153;50.960;6.220;2022-10-16T09:14:56;100557.91;;;21.12;51.32
50268;BME280;36153;50.960;6.220;2022-10-16T09:21:21;100571.91;;;21.16;50.52
50268;BME280;36153;50.960;6.220;2022-10-16T09:24:26;100575.75;;;21.05;50.46
50268;BME280;36153;50.960;6.220;2022-10-16T09:27:26;100577.78;;;21.25;50.42
50268;BME280;36153;50.960;6.220;2022-10-16T09:30:28;100581.28;;;21.26;50.61
50268;BME280;36153;50.960;6.220;2022-10-16T09:33:37;100571.47;;;21.58;51.09
50268;BME280;36153;50.960;6.220;2022-10-16T09:36:42;100563.06;;;21.97;50.80
50268;BME280;36153;50.960;6.220;2022-10-16T09:39:47;100574.97;;;22.10;49.58
50268;BME280;36153;50.960;6.220;2022-10-16T09:42:48;100577.44;;;21.64;49.85
50268;BME280;36153;50.960;6.220;2022-10-16T09:46:32;100577.94;;;21.76;49.73
50268;BME280;36153;50.960;6.220;2022-10-16T09:49:26;100566.72;;;21.68;47.61
50268;BME280;36153;50.960;6.220;2022-10-16T09:52:28;100572.31;;;21.58;48.01
50268;BME280;36153;50.960;6.220;2022-10-16T09:55:28;100569.88;;;21.52;49.07
50268;BME280;36153;50.960;6.220;2022-10-16T09:58:28;100572.25;;;21.61;49.14
50268;BME280;36153;50.960;6.220;2022-10-16T10:01:50;100576.25;;;21.98;49.52
50268;BME280;36153;50.960;6.220;2022-10-16T10:04:52;100573.66;;;21.97;47.66
50268;BME280;36153;50.960;6.220;2022-10-16T10:08:01;100556.97;;;21.68;48.21
50268;BME280;36153;50.960;6.220;2022-10-16T10:11:06;100562.44;;;21.63;48.41
50268;BME280;36153;50.960;6.220;2022-10-16T10:14:39;100567.81;;;21.87;48.52
50268;BME280;36153;50.960;6.220;2022-10-16T10:17:49;100573.13;;;22.12;48.52
50268;BME280;36153;50.960;6.220;2022-10-16T10:21:01;100571.06;;;22.21;47.22
50268;BME280;36153;50.960;6.220;2022-10-16T10:24:01;100567.44;;;22.23;46.49
50268;BME280;36153;50.960;6.220;2022-10-16T10:27:14;100579.50;;;22.32;46.47
50268;BME280;36153;50.960;6.220;2022-10-16T10:30:27;100584.13;;;22.76;46.36
50268;BME280;36153;50.960;6.220;2022-10-16T10:33:45;100585.50;;;22.86;45.74
50268;BME280;36153;50.960;6.220;2022-10-16T10:36:59;100582.59;;;22.68;45.59
50268;BME280;36153;50.960;6.220;2022-10-16T10:40:21;100583.28;;;22.97;45.75
50268;BME280;36153;50.960;6.220;2022-10-16T10:43:45;100583.72;;;23.09;44.64
50268;BME280;36153;50.960;6.220;2022-10-16T10:46:54;100589.31;;;22.79;45.36
50268;BME280;36153;50.960;6.220;2022-10-16T10:57:03;100595.75;;;23.63;45.07
50268;BME280;36153;50.960;6.220;2022-10-16T11:03:45;100604.38;;;22.78;44.43
50268;BME280;36153;50.960;6.220;2022-10-16T11:06:48;100598.56;;;23.16;44.83
50268;BME280;36153;50.960;6.220;2022-10-16T11:09:51;100591.41;;;23.83;43.50
50268;BME280;36153;50.960;6.220;2022-10-16T11:12:58;100595.13;;;23.79;42.47
50268;BME280;36153;50.960;6.220;2022-10-16T11:16:02;100592.00;;;23.90;41.78
50268;BME280;36153;50.960;6.220;2022-10-16T11:19:10;100606.03;;;23.93;43.02
50268;BME280;36153;50.960;6.220;2022-10-16T11:22:36;100603.31;;;23.95;41.89
50268;BME280;36153;50.960;6.220;2022-10-16T11:25:38;100597.81;;;23.34;43.64
50268;BME280;36153;50.960;6.220;2022-10-16T11:28:49;100609.59;;;23.27;43.99
50268;BME280;36153;50.960;6.220;2022-10-16T11:31:55;100608.50;;;23.98;42.16
50268;BME280;36153;50.960;6.220;2022-10-16T11:35:03;100602.72;;;24.29;42.64
50268;BME280;36153;50.960;6.220;2022-10-16T11:41:53;100603.66;;;24.08;42.83
50268;BME280;36153;50.960;6.220;2022-10-16T11:48:27;100608.94;;;23.87;42.50
50268;BME280;36153;50.960;6.220;2022-10-16T11:51:39;100607.72;;;24.16;42.08
50268;BME280;36153;50.960;6.220;2022-10-16T11:54:57;100619.88;;;24.43;41.61
50268;BME280;36153;50.960;6.220;2022-10-16T11:58:24;100612.09;;;24.38;41.10
50268;BME280;36153;50.960;6.220;2022-10-16T12:07:33;100613.56;;;24.04;41.92
50268;BME280;36153;50.960;6.220;2022-10-16T12:10:35;100607.50;;;24.00;41.49
50268;BME280;36153;50.960;6.220;2022-10-16T12:13:39;100603.22;;;24.79;39.94
50268;BME280;36153;50.960;6.220;2022-10-16T12:16:58;100596.66;;;24.86;39.88
50268;BME280;36153;50.960;6.220;2022-10-16T12:23:20;100601.19;;;25.22;39.80
50268;BME280;36153;50.960;6.220;2022-10-16T12:26:24;100601.72;;;25.48;39.28
50268;BME280;36153;50.960;6.220;2022-10-16T12:32:38;100602.53;;;25.50;39.43
50268;BME280;36153;50.960;6.220;2022-10-16T12:35:43;100594.16;;;25.38;38.83
50268;BME280;36153;50.960;6.220;2022-10-16T12:41:45;100600.59;;;25.71;37.59
50268;BME280;36153;50.960;6.220;2022-10-16T12:44:45;100600.44;;;25.74;37.65
50268;BME280;36153;50.960;6.220;2022-10-16T12:47:52;100585.03;;;25.97;37.20
50268;BME280;36153;50.960;6.220;2022-10-16T12:50:53;100583.25;;;25.80;36.26
50268;BME280;36153;50.960;6.220;2022-10-16T12:54:14;100594.78;;;25.80;37.40
50268;BME280;36153;50.960;6.220;2022-10-16T13:00:24;100586.84;;;25.79;36.73
50268;BME280;36153;50.960;6.220;2022-10-16T13:10:45;100595.00;;;25.76;35.61
50268;BME280;36153;50.960;6.220;2022-10-16T13:20:27;100600.06;;;25.82;37.44
50268;BME280;36153;50.960;6.220;2022-10-16T13:26:57;100577.28;;;25.92;37.10
50268;BME280;36153;50.960;6.220;2022-10-16T13:30:22;100587.63;;;25.98;37.12
50268;BME280;36153;50.960;6.220;2022-10-16T13:33:39;100581.34;;;25.47;37.49
50268;BME280;36153;50.960;6.220;2022-10-16T13:36:45;100597.47;;;25.44;37.73
50268;BME280;36153;50.960;6.220;2022-10-16T13:39:47;100599.22;;;25.45;38.00
50268;BME280;36153;50.960;6.220;2022-10-16T13:42:48;100588.06;;;25.36;37.80
50268;BME280;36153;50.960;6.220;2022-10-16T13:46:02;100603.13;;;25.37;38.75
50268;BME280;36153;50.960;6.220;2022-10-16T13:49:14;100603.94;;;25.57;39.33
50268;BME280;36153;50.960;6.220;2022-10-16T13:52:20;100607.78;;;25.69;39.24
50268;BME280;36153;50.960;6.220;2022-10-16T13:55:20;100604.75;;;26.12;38.54
50268;BME280;36153;50.960;6.220;2022-10-16T13:58:21;100604.59;;;26.15;38.94
50268;BME280;36153;50.960;6.220;2022-10-16T14:01:28;100604.50;;;26.34;38.22
50268;BME280;36153;50.960;6.220;2022-10-16T14:04:31;100602.63;;;26.01;38.79
50268;BME280;36153;50.960;6.220;2022-10-16T14:07:33;100602.38;;;25.70;39.38
50268;BME280;36153;50.960;6.220;2022-10-16T14:10:35;100597.47;;;25.44;40.45
50268;BME280;36153;50.960;6.220;2022-10-16T14:13:44;100606.03;;;25.31;41.41
50268;BME280;36153;50.960;6.220;2022-10-16T14:16:45;100601.97;;;25.05;41.42
50268;BME280;36153;50.960;6.220;2022-10-16T14:19:47;100605.84;;;24.98;42.70
50268;BME280;36153;50.960;6.220;2022-10-16T14:22:59;100614.78;;;24.97;41.92
50268;BME280;36153;50.960;6.220;2022-10-16T14:26:27;100619.53;;;25.09;42.82
50268;BME280;36153;50.960;6.220;2022-10-16T14:29:29;100619.66;;;25.06;43.88
50268;BME280;36153;50.960;6.220;2022-10-16T14:32:33;100617.66;;;25.11;42.62
50268;BME280;36153;50.960;6.220;2022-10-16T14:35:36;100607.28;;;25.24;42.82
50268;BME280;36153;50.960;6.220;2022-10-16T14:38:55;100604.53;;;25.26;43.56
50268;BME280;36153;50.960;6.220;2022-10-16T14:41:57;100619.25;;;24.96;41.17
50268;BME280;36153;50.960;6.220;2022-10-16T14:44:58;100626.13;;;24.62;42.63
50268;BME280;36153;50.960;6.220;2022-10-16T14:48:04;100619.47;;;24.31;41.64
50268;BME280;36153;50.960;6.220;2022-10-16T14:51:14;100612.75;;;24.23;43.38
50268;BME280;36153;50.960;6.220;2022-10-16T14:54:17;100607.78;;;24.15;43.60
50268;BME280;36153;50.960;6.220;2022-10-16T14:57:20;100613.94;;;23.95;44.83
50268;BME280;36153;50.960;6.220;2022-10-16T15:00:23;100605.81;;;23.99;46.24
50268;BME280;36153;50.960;6.220;2022-10-16T15:03:24;100604.72;;;24.03;46.29
50268;BME280;36153;50.960;6.220;2022-10-16T15:06:24;100597.28;;;23.91;45.68
50268;BME280;36153;50.960;6.220;2022-10-16T15:09:25;100588.75;;;23.83;46.54
50268;BME280;36153;50.960;6.220;2022-10-16T15:12:25;100589.13;;;23.74;47.01
50268;BME280;36153;50.960;6.220;2022-10-16T15:15:37;100585.06;;;23.65;47.88
50268;BME280;36153;50.960;6.220;2022-10-16T15:18:39;100589.91;;;23.55;47.38
50268;BME280;36153;50.960;6.220;2022-10-16T15:21:40;100588.53;;;23.45;48.84
50268;BME280;36153;50.960;6.220;2022-10-16T15:24:40;100581.72;;;23.38;48.73
50268;BME280;36153;50.960;6.220;2022-10-16T15:27:40;100577.03;;;23.22;48.49
50268;BME280;36153;50.960;6.220;2022-10-16T15:30:42;100583.41;;;23.18;48.89
50268;BME280;36153;50.960;6.220;2022-10-16T15:33:42;100584.16;;;23.22;49.07
50268;BME280;36153;50.960;6.220;2022-10-16T15:36:42;100584.31;;;23.17;49.40
50268;BME280;36153;50.960;6.220;2022-10-16T15:39:43;100583.22;;;23.23;49.71
50268;BME280;36153;50.960;6.220;2022-10-16T15:42:43;100578.94;;;23.18;49.53
50268;BME280;36153;50.960;6.220;2022-10-16T15:45:58;100581.31;;;23.02;49.33
50268;BME280;36153;50.960;6.220;2022-10-16T15:48:58;100575.44;;;22.94;49.85
50268;BME280;36153;50.960;6.220;2022-10-16T15:51:59;100575.13;;;22.80;50.13
50268;BME280;36153;50.960;6.220;2022-10-16T15:54:59;100571.31;;;22.87;49.90
50268;BME280;36153;50.960;6.220;2022-10-16T15:58:00;100572.22;;;22.86;50.20
50268;BME280;36153;50.960;6.220;2022-10-16T16:01:01;100581.16;;;22.83;50.65
50268;BME280;36153;50.960;6.220;2022-10-16T16:04:03;100570.88;;;22.76;51.14
50268;BME280;36153;50.960;6.220;2022-10-16T16:07:04;100577.41;;;22.65;51.45
50268;BME280;36153;50.960;6.220;2022-10-16T16:10:09;100577.88;;;22.53;52.01
50268;BME280;36153;50.960;6.220;2022-10-16T16:13:10;100574.75;;;22.42;51.74
50268;BME280;36153;50.960;6.220;2022-10-16T16:16:13;100579.09;;;22.19;52.28
50268;BME280;36153;50.960;6.220;2022-10-16T16:19:14;100578.25;;;22.17;52.19
50268;BME280;36153;50.960;6.220;2022-10-16T16:22:16;100586.31;;;22.14;51.81
50268;BME280;36153;50.960;6.220;2022-10-16T16:25:17;100583.63;;;21.90;52.05
50268;BME280;36153;50.960;6.220;2022-10-16T16:28:17;100572.28;;;21.87;52.51
50268;BME280;36153;50.960;6.220;2022-10-16T16:31:17;100569.31;;;21.69;53.17
50268;BME280;36153;50.960;6.220;2022-10-16T16:34:18;100572.59;;;21.49;53.41
50268;BME280;36153;50.960;6.220;2022-10-16T16:37:19;100571.81;;;21.45;53.62
50268;BME280;36153;50.960;6.220;2022-10-16T16:40:19;100582.44;;;21.45;53.85
50268;BME280;36153;50.960;6.220;2022-10-16T16:43:24;100582.47;;;21.44;54.06
50268;BME280;36153;50.960;6.220;2022-10-16T16:46:25;100580.59;;;21.47;53.63
50268;BME280;36153;50.960;6.220;2022-10-16T16:49:25;100586.66;;;21.51;53.88
50268;BME280;36153;50.960;6.220;2022-10-16T16:52:28;100599.38;;;21.40;53.66
50268;BME280;36153;50.960;6.220;2022-10-16T16:55:29;100601.91;;;21.43;53.24
50268;BME280;36153;50.960;6.220;2022-10-16T16:58:29;100592.66;;;21.29;53.58
50268;BME280;36153;50.960;6.220;2022-10-16T17:01:30;100609.00;;;21.14;54.10
50268;BME280;36153;50.960;6.220;2022-10-16T17:04:31;100604.75;;;21.08;53.79
50268;BME280;36153;50.960;6.220;2022-10-16T17:07:32;100604.91;;;21.04;54.34
50268;BME280;36153;50.960;6.220;2022-10-16T17:10:42;100595.38;;;20.98;54.78
50268;BME280;36153;50.960;6.220;2022-10-16T17:13:42;100609.56;;;20.95;55.21